Airfield :
LOGIN :

Register | Disclaimer

   EN    FR    IT 

 










Legend :    VFR   Marginal VFR   IFR   Intensive IFR   Very Intensive IFR
Visi :
Ceiling :
>= 8 km
>= 3000ft
5 to 8 km
1000 to 3000 ft
1500m to 5 km
500 to 1000 ft
800 to 1500m
200 to 500 ft
< 800m
< 200 ft
Symbols :   Thunderstorms  Fog  Heavy snow  Heavy precipitations  Wind > 20 kt
SIGMETs :     Misc.  Thunderstorms  Icing  Turbulence  Mountain Waves  Volcanic Ashes







- Airport Elevation : 151 ft
- IATA code : LSZ


LDLO - Lošinj Island

METAR N/A
TAF TAF LDLO
Valid from the 24 at 12:00 until the 25 at 12:00 UTC


241134Z 2412/2512 13008KT 9999 BKN040 TX21/2413Z TN15/2503Z
TEMPO 2412/2500 3000 TSRA FEW025CB BKN030
BECMG 2420/2422 02008KT
No reported NOTAMs for that airfield.
1 SIGMET reported for the Zagreb FIR (LDZO) :
 
Frequent thunderstorms
LDZO SIGMET 18 VALID 250000/250200 LDZA
LDZO ZAGREB FIR FRQ TS OBS WI N4410 E01527 - N4240 E01756 - N4148 E01723 - N4235 E01528 - N4335 E01418 - N4410 E01527 TOP FL390 STNR NC=



MET'MAP, your aeronautical weather chart ! - Copyright ORBIFLY December 2007 - Disclaimer

ORBIFLY MET'MAP TEAM :

Programming & Development : Alexandra Zaïnal
Concept & Development : Baudouin d'Aumeries
Co-Development & Prog : Marc-Olivier Méhu
Technical & hardware support : Manuel Goepfert

Contact : metmap@orbifly.com




SOURCES & CREDITS :

   NOAA